Time;durP1;ratioP1;P1;durP2;ratioP2;P2;SDS_P1;SDS_P2;PMS_P1;PMS_P2;Temp;Humidity;BMP_temperature;BMP_pressure;BME280_temperature;BME280_humidity;BME280_pressure;Samples;Min_cycle;Max_cycle;Signal;HPM_P1;HPM_P2
2022/09/20 00:00:23;;;;;;;16.30;7.60;;;;;;;10.07;100.00;102001.44;1993601;28;20078;-69
2022/09/20 00:01:28;;;;;;;13.82;7.57;;;;;;;10.09;100.00;102005.72;1993667;28;20029;-68
2022/09/20 00:02:27;;;;;;;13.40;7.53;;;;;;;10.10;100.00;102006.59;1986406;28;20033;-68
2022/09/20 00:03:25;;;;;;;13.95;7.72;;;;;;;10.04;100.00;101998.00;1986460;28;20165;-68
2022/09/20 00:04:22;;;;;;;14.98;7.60;;;;;;;10.10;100.00;101996.16;1986469;28;20025;-68
2022/09/20 00:05:19;;;;;;;13.90;7.43;;;;;;;10.07;100.00;101996.22;1986456;28;20055;-67
2022/09/20 00:06:22;;;;;;;15.60;7.90;;;;;;;10.07;100.00;102004.03;1986396;28;20115;-67
2022/09/20 00:07:19;;;;;;;15.40;7.30;;;;;;;10.05;100.00;101997.13;1986366;28;20024;-69
2022/09/20 00:08:16;;;;;;;16.35;7.80;;;;;;;10.07;100.00;102001.44;1986454;28;20495;-67
2022/09/20 00:09:14;;;;;;;22.08;8.13;;;;;;;10.04;100.00;101998.00;1993502;28;20536;-67
2022/09/20 00:10:11;;;;;;;15.60;7.35;;;;;;;10.01;100.00;101998.06;1991480;28;20032;-68
2022/09/20 00:11:27;;;;;;;15.98;7.75;;;;;;;10.02;100.00;101999.78;1987213;28;20036;-68
2022/09/20 00:12:25;;;;;;;16.58;7.65;;;;;;;9.99;100.00;101999.84;1993638;28;20028;-67
2022/09/20 00:13:23;;;;;;;14.80;7.57;;;;;;;10.00;100.00;102001.59;1993585;28;20514;-68
2022/09/20 00:14:20;;;;;;;12.93;7.57;;;;;;;10.00;100.00;102006.78;1985584;28;20116;-67
2022/09/20 00:15:17;;;;;;;15.75;8.32;;;;;;;10.02;100.00;102004.13;1985673;28;20033;-68
2022/09/20 00:16:22;;;;;;;18.48;8.45;;;;;;;10.01;100.00;102002.41;1986227;28;20033;-67
2022/09/20 00:17:19;;;;;;;24.58;8.65;;;;;;;9.98;100.00;102008.56;1986409;28;20083;-67
2022/09/20 00:18:17;;;;;;;15.43;7.95;;;;;;;9.97;100.00;102006.84;1986333;28;20028;-70
2022/09/20 00:19:20;;;;;;;15.27;8.00;;;;;;;9.97;100.00;102006.84;1986315;28;20052;-68
2022/09/20 00:20:18;;;;;;;16.38;7.40;;;;;;;10.00;100.00;102000.72;1986306;28;20040;-70
2022/09/20 00:21:19;;;;;;;14.18;7.97;;;;;;;9.99;100.00;102005.06;1993552;28;20024;-69
2022/09/20 00:22:16;;;;;;;13.68;7.93;;;;;;;9.94;100.00;101996.47;1993553;28;20368;-68
2022/09/20 00:23:14;;;;;;;11.93;7.55;;;;;;;9.96;100.00;102005.13;1993497;28;20036;-68
2022/09/20 00:24:11;;;;;;;13.25;7.88;;;;;;;9.96;100.00;101999.91;1993547;28;20090;-69
2022/09/20 00:25:09;;;;;;;15.43;8.10;;;;;;;9.96;100.00;101999.91;1986993;28;20114;-68
2022/09/20 00:26:06;;;;;;;14.73;7.70;;;;;;;10.01;100.00;101997.19;1993331;28;20029;-69
2022/09/20 00:27:04;;;;;;;14.02;7.80;;;;;;;9.97;100.00;101996.44;1993583;28;20021;-68
2022/09/20 00:28:01;;;;;;;13.40;7.53;;;;;;;9.97;100.00;101995.56;1993434;28;20035;-69
2022/09/20 00:28:59;;;;;;;18.80;7.97;;;;;;;9.97;100.00;101991.22;1993558;28;20016;-70
2022/09/20 00:29:58;;;;;;;15.55;7.85;;;;;;;9.98;100.00;101998.13;1986841;28;20112;-70
2022/09/20 00:30:56;;;;;;;12.88;7.35;;;;;;;10.01;100.00;101992.84;1986212;28;20033;-69
2022/09/20 00:31:53;;;;;;;16.17;7.82;;;;;;;9.95;100.00;101992.97;1986093;28;20029;-69
2022/09/20 00:32:50;;;;;;;15.73;8.15;;;;;;;9.99;100.00;101999.84;1986277;28;20464;-69
2022/09/20 00:35:12;;;;;;;16.38;8.18;;;;;;;9.98;100.00;102002.47;1986132;28;20045;-69
2022/09/20 00:36:09;;;;;;;16.33;7.90;;;;;;;9.98;100.00;101999.88;1986195;28;20037;-69
2022/09/20 00:37:06;;;;;;;15.30;8.07;;;;;;;9.98;100.00;101998.13;1986166;28;20033;-69
2022/09/20 00:38:04;;;;;;;12.93;7.65;;;;;;;9.97;100.00;102004.25;1986219;28;20029;-69
2022/09/20 00:39:03;;;;;;;17.33;7.88;;;;;;;9.98;100.00;102003.34;1986140;28;20032;-67
2022/09/20 00:40:02;;;;;;;19.40;8.35;;;;;;;9.98;100.00;101998.13;1984073;28;20033;-67
2022/09/20 00:40:59;;;;;;;20.02;8.40;;;;;;;9.94;100.00;101996.47;1986124;28;20064;-69
2022/09/20 00:41:56;;;;;;;14.68;8.13;;;;;;;9.96;100.00;101997.28;1986148;28;20025;-68
2022/09/20 00:42:54;;;;;;;16.60;7.93;;;;;;;9.97;100.00;101996.44;1986164;28;20021;-68
2022/09/20 00:43:52;;;;;;;15.35;8.57;;;;;;;9.91;100.00;102002.63;1986137;28;20046;-68
2022/09/20 00:44:59;;;;;;;13.23;7.45;;;;;;;9.95;100.00;102011.22;1985997;28;20369;-69
2022/09/20 00:45:57;;;;;;;15.07;7.65;;;;;;;9.94;100.00;101996.47;1986059;28;20029;-68
2022/09/20 00:46:55;;;;;;;18.55;8.13;;;;;;;9.93;100.00;101994.78;1985981;28;20056;-68
2022/09/20 00:48:10;;;;;;;14.25;8.05;;;;;;;9.93;100.00;102002.59;1986135;28;20384;-68
2022/09/20 00:49:26;;;;;;;15.70;7.63;;;;;;;9.85;100.00;102000.13;1986002;28;20419;-68
2022/09/20 00:51:00;;;;;;;23.05;7.60;;;;;;;9.85;100.00;102001.91;1986122;28;20040;-69
2022/09/20 00:52:01;;;;;;;19.23;7.80;;;;;;;9.85;100.00;102000.13;1985417;28;20029;-69
2022/09/20 00:53:25;;;;;;;19.55;8.05;;;;;;;9.78;100.00;101996.81;1985003;28;20025;-68
2022/09/20 00:54:25;;;;;;;12.80;7.55;;;;;;;9.79;100.00;101998.50;1985968;28;20116;-67
2022/09/20 00:55:23;;;;;;;17.65;8.07;;;;;;;9.81;100.00;102000.25;1986010;28;20129;-69
2022/09/20 00:56:30;;;;;;;17.58;8.20;;;;;;;9.79;100.00;101998.50;1986049;28;20499;-70
2022/09/20 00:57:34;;;;;;;18.52;7.55;;;;;;;9.75;100.00;102001.22;1985921;28;20024;-70
2022/09/20 00:58:42;;;;;;;15.23;7.50;;;;;;;9.75;100.00;102002.06;1986035;28;20031;-69
2022/09/20 00:59:44;;;;;;;16.98;8.02;;;;;;;9.74;100.00;101999.50;1993050;28;20082;-68
2022/09/20 01:00:44;;;;;;;17.05;7.78;;;;;;;9.74;100.00;102000.38;1993267;28;20092;-69
2022/09/20 01:01:52;;;;;;;15.93;7.82;;;;;;;9.73;100.00;101997.78;1985221;28;20028;-69
2022/09/20 01:02:59;;;;;;;21.08;8.25;;;;;;;9.67;100.00;102003.97;1985525;28;20032;-69
2022/09/20 01:03:58;;;;;;;16.02;7.60;;;;;;;9.66;100.00;101997.91;1985852;28;20021;-68
2022/09/20 01:04:57;;;;;;;17.73;8.35;;;;;;;9.62;100.00;102000.63;1986030;28;20036;-69
2022/09/20 01:05:55;;;;;;;18.92;8.15;;;;;;;9.59;100.00;101995.47;1985870;28;20043;-69
2022/09/20 01:06:56;;;;;;;22.33;8.45;;;;;;;9.61;100.00;101996.31;1985390;28;20035;-70
2022/09/20 01:07:55;;;;;;;16.33;7.72;;;;;;;9.59;100.00;102001.53;1985264;28;20037;-69
2022/09/20 01:09:01;;;;;;;19.92;8.35;;;;;;;9.58;100.00;102004.16;1985930;28;20029;-69
2022/09/20 01:09:58;;;;;;;20.15;8.23;;;;;;;9.53;100.00;101997.31;1983700;28;20068;-68
2022/09/20 01:10:56;;;;;;;13.73;7.57;;;;;;;9.49;100.00;101998.25;1985961;28;20412;-68
2022/09/20 01:11:57;;;;;;;17.92;8.68;;;;;;;9.48;100.00;101996.50;1985901;28;20078;-69
2022/09/20 01:12:54;;;;;;;16.90;8.10;;;;;;;9.46;100.00;101994.81;1985295;28;20029;-69
2022/09/20 01:13:52;;;;;;;22.25;8.70;;;;;;;9.46;100.00;101995.69;1985355;28;20108;-70
2022/09/20 01:14:51;;;;;;;17.38;8.43;;;;;;;9.46;100.00;101989.63;1985617;28;20098;-69
2022/09/20 01:15:51;;;;;;;15.80;8.20;;;;;;;9.43;100.00;101995.75;1985952;28;20081;-69
2022/09/20 01:16:52;;;;;;;16.58;8.50;;;;;;;9.43;100.00;101989.66;1985847;28;20032;-69
2022/09/20 01:17:54;;;;;;;14.55;8.30;;;;;;;9.44;100.00;101997.47;1985968;28;20060;-69
2022/09/20 01:18:54;;;;;;;14.88;8.02;;;;;;;9.46;100.00;102002.66;1985863;28;20033;-70
2022/09/20 01:20:26;;;;;;;13.63;7.95;;;;;;;9.43;100.00;101998.34;1985923;28;20028;-69
2022/09/20 01:21:26;;;;;;;16.52;8.45;;;;;;;9.43;100.00;101990.53;1985879;28;20029;-70
2022/09/20 01:22:42;;;;;;;16.75;8.52;;;;;;;9.42;100.00;101996.66;1985772;28;20086;-69
2022/09/20 01:24:47;;;;;;;22.15;8.57;;;;;;;9.43;100.00;101992.28;1993057;28;20123;-69
2022/09/20 01:26:28;;;;;;;15.70;7.72;;;;;;;9.39;100.00;101992.34;1977004;28;20018;-69
2022/09/20 01:27:49;;;;;;;16.95;8.10;;;;;;;9.40;100.00;101993.19;1976076;28;20111;-70
2022/09/20 01:28:52;;;;;;;19.92;8.48;;;;;;;9.42;100.00;101999.25;1985552;28;20531;-70
2022/09/20 01:30:11;;;;;;;16.27;7.88;;;;;;;9.45;100.00;101999.19;1985573;28;20115;-69
2022/09/20 01:31:24;;;;;;;20.67;7.97;;;;;;;9.44;100.00;101999.22;1985601;28;20068;-70
2022/09/20 01:32:34;;;;;;;13.23;8.35;;;;;;;9.46;100.00;101995.69;1985436;28;20076;-70
2022/09/20 01:33:48;;;;;;;14.82;7.82;;;;;;;9.47;100.00;101992.19;1984782;28;20028;-70
2022/09/20 01:34:51;;;;;;;13.15;7.60;;;;;;;9.50;100.00;101991.28;1984986;28;20025;-70
2022/09/20 01:35:53;;;;;;;16.00;7.72;;;;;;;9.51;100.00;101986.03;1985633;28;20071;-69
2022/09/20 01:37:05;;;;;;;15.85;8.02;;;;;;;9.52;100.00;101992.13;1985571;28;20025;-70
2022/09/20 01:39:07;;;;;;;17.77;7.25;;;;;;;9.49;100.00;101990.44;1985711;28;20036;-69
2022/09/20 01:40:36;;;;;;;14.18;7.32;;;;;;;9.49;100.00;101995.66;1983619;28;20033;-69
2022/09/20 01:41:41;;;;;;;16.25;7.65;;;;;;;9.47;100.00;101992.19;1985582;28;20025;-69
2022/09/20 01:42:54;;;;;;;14.68;7.55;;;;;;;9.49;100.00;101993.03;1985721;28;20035;-69
2022/09/20 01:44:17;;;;;;;14.23;7.43;;;;;;;9.53;100.00;101997.31;1985553;28;20025;-70
2022/09/20 01:45:26;;;;;;;15.68;7.40;;;;;;;9.57;100.00;101995.47;1985520;28;20131;-69
2022/09/20 01:46:31;;;;;;;16.20;6.82;;;;;;;9.55;100.00;101996.41;1985502;28;20511;-70
2022/09/20 01:47:58;;;;;;;17.25;7.32;;;;;;;9.51;100.00;101999.06;1984980;28;20029;-68
2022/09/20 01:49:18;;;;;;;15.68;7.00;;;;;;;9.53;100.00;101997.31;1985373;28;20463;-69
2022/09/20 01:51:06;;;;;;;14.23;7.22;;;;;;;9.50;100.00;101997.34;1985683;28;20039;-69
2022/09/20 01:52:56;;;;;;;15.82;7.05;;;;;;;9.52;100.00;101995.56;1985617;28;20029;-70
2022/09/20 01:54:44;;;;;;;19.67;7.00;;;;;;;9.50;100.00;101986.06;1985562;28;20116;-69
2022/09/20 01:56:07;;;;;;;14.15;6.63;;;;;;;9.51;100.00;101988.66;1985485;28;20028;-69
2022/09/20 01:58:01;;;;;;;12.15;6.80;;;;;;;9.53;100.00;101992.09;1985671;28;20033;-70
2022/09/20 01:59:36;;;;;;;13.55;6.63;;;;;;;9.51;100.00;101999.06;1968945;28;20026;-70
2022/09/20 02:01:11;;;;;;;10.95;6.45;;;;;;;9.53;100.00;101997.31;1969312;28;20160;-69
2022/09/20 02:02:54;;;;;;;15.32;6.43;;;;;;;9.53;100.00;101997.31;1991505;28;20395;-69
2022/09/20 02:04:40;;;;;;;15.50;6.60;;;;;;;9.53;100.00;101992.09;1992625;28;20051;-69
2022/09/20 02:06:02;;;;;;;18.35;6.30;;;;;;;9.57;100.00;101997.22;1976422;28;20043;-70
2022/09/20 02:07:24;;;;;;;15.30;7.00;;;;;;;9.55;100.00;101996.41;1992365;28;20028;-70
2022/09/20 02:09:14;;;;;;;14.75;7.25;;;;;;;9.56;100.00;101998.13;2000341;28;20103;-71
2022/09/20 02:10:37;;;;;;;12.88;7.00;;;;;;;9.59;100.00;101992.84;1991370;28;20027;-70
2022/09/20 02:11:58;;;;;;;12.88;6.32;;;;;;;9.63;100.00;101994.50;1984564;28;20018;-70
2022/09/20 02:13:10;;;;;;;14.40;6.47;;;;;;;9.63;100.00;101987.56;1991571;28;20118;-70
2022/09/20 02:15:10;;;;;;;13.13;6.25;;;;;;;9.65;100.00;101990.13;1992532;28;20503;-69
2022/09/20 02:16:16;;;;;;;11.70;5.93;;;;;;;9.66;100.00;101995.28;1968684;28;20042;-70
2022/09/20 02:17:29;;;;;;;16.23;6.72;;;;;;;9.69;100.00;101989.19;1968747;28;20429;-70
2022/09/20 02:18:47;;;;;;;18.77;6.88;;;;;;;9.71;100.00;101994.38;1976511;28;20091;-70
2022/09/20 02:20:13;;;;;;;11.68;6.03;;;;;;;9.73;100.00;101993.44;1976273;28;20030;-70
2022/09/20 02:21:33;;;;;;;11.77;6.15;;;;;;;9.70;100.00;101995.22;1976646;28;20276;-71
2022/09/20 02:22:51;;;;;;;12.05;6.10;;;;;;;9.73;100.00;101993.44;1986681;28;20025;-70
2022/09/20 02:24:25;;;;;;;12.85;6.18;;;;;;;9.74;100.00;101995.16;1993128;28;20413;-70
2022/09/20 02:26:01;;;;;;;12.48;6.15;;;;;;;9.71;100.00;101995.19;2000360;28;20499;-69
2022/09/20 02:27:52;;;;;;;14.63;5.57;;;;;;;9.75;100.00;101994.25;1996396;28;20034;-69
2022/09/20 02:29:16;;;;;;;12.32;5.55;;;;;;;9.84;100.00;101995.81;1993092;28;20052;-70
2022/09/20 02:31:09;;;;;;;17.85;6.45;;;;;;;9.86;100.00;101993.19;1992798;28;20037;-70
2022/09/20 02:33:05;;;;;;;14.40;5.28;;;;;;;9.86;100.00;101998.41;1993182;28;20543;-70
2022/09/20 02:34:30;;;;;;;12.63;4.85;;;;;;;9.91;100.00;101996.53;1993281;28;20067;-70
2022/09/20 02:35:46;;;;;;;11.02;5.88;;;;;;;9.88;100.00;101997.47;1993355;28;20029;-71
2022/09/20 02:36:55;;;;;;;9.77;5.03;;;;;;;9.89;100.00;101993.97;1993410;28;20410;-70
2022/09/20 02:38:10;;;;;;;10.85;5.10;;;;;;;9.95;100.00;101982.53;1993233;28;20070;-70
2022/09/20 02:39:19;;;;;;;9.13;4.70;;;;;;;9.96;100.00;101986.84;1993346;28;20032;-70
2022/09/20 02:41:06;;;;;;;14.15;5.88;;;;;;;9.89;100.00;101982.69;1991076;28;20068;-71
2022/09/20 02:42:28;;;;;;;9.48;5.60;;;;;;;9.91;100.00;101989.59;1992599;28;20120;-70
2022/09/20 02:43:43;;;;;;;12.95;6.00;;;;;;;9.92;100.00;101990.44;1992869;28;20035;-70
2022/09/20 02:45:16;;;;;;;11.95;5.72;;;;;;;9.90;100.00;101992.22;1993122;28;20020;-70
2022/09/20 02:46:24;;;;;;;9.77;5.32;;;;;;;9.89;100.00;101993.13;1993212;28;20120;-69
2022/09/20 02:47:37;;;;;;;15.75;5.32;;;;;;;9.88;100.00;101994.00;1993244;28;20035;-68
2022/09/20 02:49:13;;;;;;;14.73;6.13;;;;;;;9.88;100.00;101991.38;1993270;28;20070;-67
2022/09/20 02:50:26;;;;;;;11.52;5.80;;;;;;;9.90;100.00;101994.84;1993307;28;20024;-70
2022/09/20 02:51:45;;;;;;;11.02;5.78;;;;;;;9.90;100.00;102000.03;1993278;28;20020;-70
2022/09/20 02:53:30;;;;;;;15.90;6.68;;;;;;;9.86;100.00;101995.78;1993223;28;20020;-71
2022/09/20 02:55:04;;;;;;;13.38;6.20;;;;;;;9.88;100.00;101996.59;1993148;28;20384;-69
2022/09/20 02:56:37;;;;;;;11.77;6.05;;;;;;;9.85;100.00;101996.69;1993243;28;20028;-69
2022/09/20 02:58:22;;;;;;;11.63;5.78;;;;;;;9.85;100.00;101994.06;1993251;28;20460;-70
2022/09/20 02:59:35;;;;;;;11.05;5.53;;;;;;;9.84;100.00;101994.94;1976403;28;20163;-66
2022/09/20 03:01:16;;;;;;;8.25;5.55;;;;;;;9.85;100.00;101991.47;1992533;28;20037;-70
2022/09/20 03:02:42;;;;;;;20.70;6.32;;;;;;;9.88;100.00;102002.69;1997765;28;20489;-69
2022/09/20 03:04:22;;;;;;;18.83;6.22;;;;;;;9.90;100.00;101990.50;1997785;28;20139;-70
2022/09/20 03:05:42;;;;;;;12.00;5.40;;;;;;;9.93;100.00;101989.56;1976500;28;20034;-70
2022/09/20 03:07:09;;;;;;;15.45;5.65;;;;;;;9.89;100.00;101982.69;1993267;28;20047;-69
2022/09/20 03:08:52;;;;;;;12.95;6.15;;;;;;;9.91;100.00;101981.75;1993270;28;20419;-70
2022/09/20 03:10:14;;;;;;;9.77;5.80;;;;;;;9.96;100.00;101988.63;1992257;28;20016;-70
2022/09/20 03:11:31;;;;;;;11.77;6.18;;;;;;;9.97;100.00;101986.00;1992821;28;20111;-69
2022/09/20 03:13:20;;;;;;;11.30;5.90;;;;;;;9.93;100.00;101986.94;1993274;28;20353;-68
2022/09/20 03:14:30;;;;;;;14.90;5.50;;;;;;;9.99;100.00;101983.34;1993002;28;20505;-70
2022/09/20 03:16:06;;;;;;;13.30;5.60;;;;;;;9.94;100.00;101977.34;1992081;28;20091;-69
2022/09/20 03:17:41;;;;;;;11.93;6.30;;;;;;;9.99;100.00;101978.97;1994442;28;20032;-70
2022/09/20 03:19:14;;;;;;;10.63;5.90;;;;;;;9.99;100.00;101978.13;1994699;28;20450;-70
2022/09/20 03:20:43;;;;;;;13.05;5.80;;;;;;;9.99;100.00;101989.41;1993933;28;20111;-69
2022/09/20 03:22:00;;;;;;;12.10;6.05;;;;;;;10.00;100.00;101985.06;1994180;28;20032;-69
2022/09/20 03:23:29;;;;;;;18.83;6.30;;;;;;;10.01;100.00;101992.84;1994564;28;20058;-70
2022/09/20 03:25:03;;;;;;;10.77;5.80;;;;;;;9.97;100.00;101991.22;1994435;28;20510;-70
2022/09/20 03:26:06;;;;;;;9.65;5.65;;;;;;;10.00;100.00;101991.16;1994608;28;20033;-70
2022/09/20 03:27:33;;;;;;;10.77;6.20;;;;;;;10.00;100.00;101995.50;1994557;28;20479;-70
2022/09/20 03:29:23;;;;;;;15.60;6.28;;;;;;;9.98;100.00;101987.69;1994535;28;20112;-68
2022/09/20 03:31:07;;;;;;;16.25;6.47;;;;;;;10.01;100.00;101992.84;1994363;28;20082;-70
2022/09/20 03:32:32;;;;;;;14.15;6.43;;;;;;;10.04;100.00;101986.72;1994347;28;20084;-70
2022/09/20 03:33:49;;;;;;;14.63;6.13;;;;;;;10.04;100.00;101987.56;1994587;28;20055;-69
2022/09/20 03:35:26;;;;;;;11.90;6.40;;;;;;;9.97;100.00;101988.59;1994352;28;20052;-70
2022/09/20 03:37:04;;;;;;;15.32;6.30;;;;;;;9.98;100.00;101992.03;1994394;28;20054;-69
2022/09/20 03:38:38;;;;;;;13.68;6.50;;;;;;;10.01;100.00;101986.78;1978211;28;20048;-69
2022/09/20 03:40:25;;;;;;;12.13;6.70;;;;;;;9.99;100.00;101986.81;1993902;28;20664;-70
2022/09/20 03:42:17;;;;;;;13.30;6.38;;;;;;;9.96;100.00;101991.25;1983733;28;20072;-71
2022/09/20 03:44:11;;;;;;;13.25;6.63;;;;;;;9.99;100.00;101989.41;1977652;28;20049;-69
2022/09/20 03:45:34;;;;;;;15.25;6.55;;;;;;;10.00;100.00;101993.75;1974366;28;20703;-70
2022/09/20 03:46:42;;;;;;;15.88;6.93;;;;;;;10.03;100.00;101992.81;1977731;28;20047;-70
2022/09/20 03:47:57;;;;;;;12.68;6.30;;;;;;;10.04;100.00;101990.19;1977747;28;20029;-70
2022/09/20 03:49:29;;;;;;;10.40;6.55;;;;;;;10.04;100.00;101992.78;1993573;28;20032;-71
2022/09/20 03:50:45;;;;;;;10.30;6.45;;;;;;;10.05;100.00;101991.03;1998112;28;20159;-68
2022/09/20 03:51:59;;;;;;;13.10;6.85;;;;;;;10.07;100.00;101985.78;1994411;28;20020;-70
2022/09/20 03:53:22;;;;;;;14.45;7.22;;;;;;;10.08;100.00;101992.69;1994308;28;20028;-69
2022/09/20 03:55:27;;;;;;;11.25;6.38;;;;;;;10.04;100.00;101987.56;1994217;28;20032;-69
2022/09/20 03:56:51;;;;;;;13.52;7.07;;;;;;;10.05;100.00;101994.50;1977544;28;20049;-70
2022/09/20 03:58:12;;;;;;;18.85;7.10;;;;;;;10.10;100.00;101996.16;1981481;28;20139;-69
2022/09/20 03:59:29;;;;;;;15.38;6.82;;;;;;;10.12;100.00;101994.34;1994289;28;20500;-69
2022/09/20 04:00:57;;;;;;;15.18;6.65;;;;;;;10.15;100.00;101994.28;1994157;28;20034;-69
2022/09/20 04:02:43;;;;;;;14.15;6.80;;;;;;;10.12;100.00;101989.13;1994312;28;20060;-69
2022/09/20 04:04:04;;;;;;;13.68;6.95;;;;;;;10.16;100.00;101996.00;1994256;28;20084;-71
2022/09/20 04:05:15;;;;;;;16.20;6.75;;;;;;;10.17;100.00;101992.53;1994258;28;20032;-69
2022/09/20 04:06:39;;;;;;;13.60;6.22;;;;;;;10.21;100.00;101993.28;1994168;28;20039;-68
2022/09/20 04:08:05;;;;;;;12.65;6.18;;;;;;;10.19;100.00;102001.16;1994223;28;20024;-68
2022/09/20 04:09:46;;;;;;;13.52;6.57;;;;;;;10.22;100.00;101995.88;1994334;28;20372;-73
2022/09/20 04:11:06;;;;;;;12.38;6.18;;;;;;;10.24;100.00;101998.44;1975454;28;20469;-69
2022/09/20 04:12:34;;;;;;;;;;;;;;;10.19;100.00;101995.94;1994551;28;20084;-70
2022/09/20 04:13:43;;;;;;;10.90;6.00;;;;;;;10.20;100.00;101988.97;1994275;28;19963;-70
2022/09/20 04:15:02;;;;;;;9.63;5.97;;;;;;;10.21;100.00;101994.16;1994051;28;20475;-67
2022/09/20 04:16:45;;;;;;;13.57;6.13;;;;;;;10.21;100.00;101991.56;1994190;28;20029;-69
2022/09/20 04:18:25;;;;;;;11.10;6.10;;;;;;;10.26;100.00;101983.59;1994247;28;20033;-72
2022/09/20 04:19:34;;;;;;;10.30;5.70;;;;;;;10.25;100.00;101974.94;1994207;28;20024;-70
2022/09/20 04:20:49;;;;;;;12.18;5.72;;;;;;;10.26;100.00;101971.44;1994189;28;20034;-70
2022/09/20 04:21:57;;;;;;;10.82;5.80;;;;;;;10.28;100.00;101972.28;1994227;28;20031;-69
2022/09/20 04:23:09;;;;;;;11.75;5.95;;;;;;;10.25;100.00;101969.72;1994137;28;20028;-69
2022/09/20 04:24:25;;;;;;;7.78;5.43;;;;;;;10.29;100.00;101968.75;1994143;28;20112;-74
2022/09/20 04:25:38;;;;;;;11.93;5.50;;;;;;;10.28;100.00;101972.28;1994079;28;20050;-73
2022/09/20 04:26:48;;;;;;;14.00;6.00;;;;;;;10.29;100.00;101971.38;1994074;28;20021;-70
2022/09/20 04:28:03;;;;;;;12.05;5.82;;;;;;;10.31;100.00;101974.78;1993267;28;20039;-69
2022/09/20 04:29:49;;;;;;;8.30;5.55;;;;;;;10.31;100.00;101973.94;1994096;28;20029;-71
2022/09/20 04:30:52;;;;;;;12.00;5.82;;;;;;;10.30;100.00;101983.50;1993093;28;20036;-71
2022/09/20 04:32:18;;;;;;;13.50;5.72;;;;;;;10.30;100.00;101983.50;1993371;28;20403;-71
2022/09/20 04:33:27;;;;;;;8.15;5.50;;;;;;;10.25;100.00;101985.38;1994017;28;20157;-70
2022/09/20 04:36:46;;;;;;;14.77;5.18;;;;;;;10.33;100.00;101987.78;1994165;28;20388;-69
2022/09/20 04:37:46;;;;;;;11.50;5.22;;;;;;;10.27;100.00;101983.56;1984730;28;20071;-69
2022/09/20 04:38:54;;;;;;;13.60;5.88;;;;;;;10.35;100.00;101977.31;1994103;28;20040;-69
2022/09/20 04:40:13;;;;;;;14.85;6.35;;;;;;;10.32;100.00;101978.25;1993861;28;20082;-70
2022/09/20 04:42:04;;;;;;;13.73;5.65;;;;;;;10.30;100.00;101973.06;1993971;28;20036;-68
2022/09/20 04:43:35;;;;;;;10.65;5.55;;;;;;;10.29;100.00;101975.72;1994005;28;20036;-70
2022/09/20 04:45:09;;;;;;;10.80;5.82;;;;;;;10.33;100.00;101973.91;1993904;28;20577;-69
2022/09/20 04:46:53;;;;;;;10.82;5.40;;;;;;;10.27;100.00;101978.34;1993960;28;20440;-70
2022/09/20 04:48:37;;;;;;;10.30;5.85;;;;;;;10.34;100.00;101973.00;1993907;28;20652;-70
2022/09/20 04:50:11;;;;;;;10.32;5.80;;;;;;;10.27;100.00;101974.91;1993210;28;20082;-70
2022/09/20 04:51:53;;;;;;;11.95;5.68;;;;;;;10.28;100.00;101976.63;1993723;28;20035;-70
2022/09/20 04:53:20;;;;;;;11.90;5.82;;;;;;;10.28;100.00;101985.31;1993994;28;20069;-70
2022/09/20 04:54:52;;;;;;;8.80;5.85;;;;;;;10.24;100.00;101985.41;1993782;28;20047;-70
2022/09/20 04:55:57;;;;;;;13.65;6.22;;;;;;;10.23;100.00;101987.16;1993830;28;20039;-69
2022/09/20 04:57:20;;;;;;;13.57;6.50;;;;;;;10.24;100.00;101988.88;1993889;28;20627;-71
2022/09/20 04:58:26;;;;;;;11.23;6.13;;;;;;;10.20;100.00;101997.69;1994426;28;20024;-69
2022/09/20 04:59:52;;;;;;;7.57;6.22;;;;;;;10.22;100.00;102000.22;1993849;28;20044;-69
2022/09/20 05:01:15;;;;;;;11.75;6.57;;;;;;;10.25;100.00;101998.41;1993809;28;20036;-70
2022/09/20 05:03:09;;;;;;;10.23;6.43;;;;;;;10.20;100.00;102005.50;1993701;28;20031;-67
2022/09/20 05:05:03;;;;;;;9.77;6.22;;;;;;;10.15;100.00;102004.72;2001038;28;20024;-69
2022/09/20 05:06:21;;;;;;;9.30;5.93;;;;;;;10.14;100.00;101997.81;1994777;28;20036;-70
2022/09/20 05:08:06;;;;;;;12.02;6.18;;;;;;;10.21;100.00;101999.38;1993811;28;20037;-69
2022/09/20 05:09:55;;;;;;;10.40;5.80;;;;;;;10.16;100.00;102006.44;1977067;28;20041;-70
2022/09/20 05:11:41;;;;;;;10.77;6.50;;;;;;;10.20;100.00;102002.03;1975695;28;20080;-70
2022/09/20 05:13:04;;;;;;;11.43;5.75;;;;;;;10.17;100.00;101995.13;1993691;28;20563;-70
2022/09/20 05:14:23;;;;;;;9.88;5.43;;;;;;;10.15;100.00;102004.72;1993666;28;20507;-71
2022/09/20 05:15:51;;;;;;;12.88;6.15;;;;;;;10.17;100.00;102002.97;1993481;28;20040;-71
2022/09/20 05:17:48;;;;;;;9.70;5.70;;;;;;;10.13;100.00;101996.94;1993594;28;20025;-70
2022/09/20 05:19:13;;;;;;;9.05;6.32;;;;;;;10.14;100.00;102008.22;1993671;28;20472;-71
2022/09/20 05:20:58;;;;;;;9.75;6.22;;;;;;;10.11;100.00;102003.94;1993673;28;20039;-70
2022/09/20 05:22:47;;;;;;;8.00;6.28;;;;;;;10.05;100.00;102010.16;1993601;28;20056;-69
2022/09/20 05:23:54;;;;;;;11.75;6.20;;;;;;;10.10;100.00;102006.59;1993468;28;20106;-70
2022/09/20 05:25:21;;;;;;;13.43;6.68;;;;;;;10.04;100.00;102011.06;1993531;28;20089;-69
2022/09/20 05:26:46;;;;;;;12.10;6.70;;;;;;;10.02;100.00;102014.56;1993650;28;20464;-69
2022/09/20 05:28:10;;;;;;;10.30;6.13;;;;;;;10.04;100.00;102010.19;1992804;28;20025;-70
2022/09/20 05:29:30;;;;;;;12.18;6.55;;;;;;;10.07;100.00;102017.06;1993131;28;20039;-70
2022/09/20 05:31:23;;;;;;;9.85;6.53;;;;;;;10.06;100.00;102011.00;1993408;28;20024;-70
2022/09/20 05:32:39;;;;;;;10.50;5.80;;;;;;;10.02;100.00;102014.56;1992118;28;20067;-71
2022/09/20 05:33:53;;;;;;;9.27;6.30;;;;;;;10.03;100.00;102016.31;1992976;28;20032;-71
2022/09/20 05:35:06;;;;;;;13.88;6.60;;;;;;;9.99;100.00;102018.09;1993437;28;20033;-71
2022/09/20 05:36:19;;;;;;;11.40;6.50;;;;;;;9.99;100.00;102012.88;1992819;28;20052;-71
2022/09/20 05:37:50;;;;;;;12.65;6.95;;;;;;;10.01;100.00;102018.94;1986123;28;20063;-70
2022/09/20 05:39:00;;;;;;;14.10;6.97;;;;;;;9.96;100.00;102020.75;1992991;28;20029;-71
2022/09/20 05:40:20;;;;;;;12.50;6.90;;;;;;;9.95;100.00;102023.44;1992492;28;20424;-69
2022/09/20 05:41:50;;;;;;;11.63;7.00;;;;;;;9.94;100.00;102027.78;1993557;28;20116;-69
2022/09/20 05:43:25;;;;;;;12.00;6.93;;;;;;;9.92;100.00;102029.53;1993602;28;20333;-67
2022/09/20 05:44:39;;;;;;;12.32;7.50;;;;;;;9.90;100.00;102029.59;1993429;28;20064;-72
2022/09/20 05:45:51;;;;;;;11.07;6.90;;;;;;;9.92;100.00;102034.75;1993408;28;20044;-67
2022/09/20 05:47:17;;;;;;;11.48;7.05;;;;;;;9.97;100.00;102030.31;1993394;28;20537;-70
2022/09/20 05:48:51;;;;;;;12.13;7.10;;;;;;;9.92;100.00;102030.41;1993413;28;20513;-71
2022/09/20 05:50:15;;;;;;;12.93;7.20;;;;;;;9.96;100.00;102035.56;1991866;28;20086;-68
2022/09/20 05:51:28;;;;;;;8.27;6.47;;;;;;;9.98;100.00;102029.44;1993386;28;20032;-69
2022/09/20 05:52:49;;;;;;;11.02;6.55;;;;;;;10.04;100.00;102031.91;1993167;28;20027;-71
2022/09/20 05:54:24;;;;;;;11.77;6.93;;;;;;;9.99;100.00;102032.91;1993307;28;20077;-69
2022/09/20 05:55:53;;;;;;;11.07;6.70;;;;;;;10.08;100.00;102032.69;1993385;28;20050;-70
2022/09/20 05:57:34;;;;;;;11.02;6.85;;;;;;;10.12;100.00;102038.69;1992603;28;20062;-70
2022/09/20 05:59:27;;;;;;;11.68;6.47;;;;;;;10.15;100.00;102038.63;1993200;28;20020;-71
2022/09/20 06:00:34;;;;;;;10.50;6.28;;;;;;;10.11;100.00;102040.47;1976631;28;20581;-69
2022/09/20 06:02:08;;;;;;;13.35;6.70;;;;;;;10.18;100.00;102036.84;1993304;28;20464;-71
2022/09/20 06:03:31;;;;;;;11.63;6.82;;;;;;;10.14;100.00;102043.00;1993423;28;20039;-70
2022/09/20 06:04:56;;;;;;;13.27;6.70;;;;;;;10.23;100.00;102046.31;1993369;28;20043;-70
2022/09/20 06:06:03;;;;;;;11.25;6.20;;;;;;;10.23;100.00;102041.09;1993392;28;20068;-71
2022/09/20 06:07:31;;;;;;;11.18;6.60;;;;;;;10.21;100.00;102046.34;1993342;28;20036;-68